< < Back
Terminal Aerodrome Forecast


Current Version              Previous Versions:   1  2  3  4  5  6  7  8  9  

Terminal Aerodrome Forecast

677
FTUS42 KCHS 191100
TAFSAV
TAF
KSAV 191133Z 1912/2012 34005KT P6SM SCT080 BKN250
     FM200600 VRB03KT P6SM -RA SCT035 BKN070=



Latest METAR

136
SAUS80 KWBC 200600 RRD
MTRSAV
METAR KSAV 200553Z AUTO 08004KT 9SM -RA FEW070 OVC090 11/09 A3014 RMK
AO2 RAB39 SLP204 P0000 60000 T01110089 10128 20100 58004
TSNO


USA.gov is the U.S. government's official web portal to all federal, state and local government web resources and services.